createdAt,value
2023-02-07T00:02:11.078Z,46.12
2023-02-07T00:04:37.712Z,45.10
2023-02-07T00:07:04.146Z,47.32
2023-02-07T00:09:31.030Z,47.00
2023-02-07T00:11:57.434Z,46.40
2023-02-07T00:14:23.939Z,47.88
2023-02-07T00:16:50.604Z,48.71
2023-02-07T00:19:17.056Z,47.98
2023-02-07T00:21:45.959Z,48.13
2023-02-07T00:24:12.370Z,47.42
2023-02-07T00:26:38.937Z,46.53
2023-02-07T00:29:05.772Z,47.90
2023-02-07T00:31:32.603Z,46.51
2023-02-07T00:33:59.194Z,47.53
2023-02-07T00:36:25.692Z,46.73
2023-02-07T00:38:52.126Z,48.04
2023-02-07T00:41:18.655Z,48.15
2023-02-07T00:43:45.189Z,46.29
2023-02-07T00:46:11.617Z,45.89
2023-02-07T00:48:39.522Z,47.93
2023-02-07T00:51:06.899Z,46.58
2023-02-07T00:53:33.339Z,46.35
2023-02-07T00:56:00.132Z,46.38
2023-02-07T00:58:26.535Z,45.29
2023-02-07T01:00:53.449Z,45.31
2023-02-07T01:03:20.044Z,45.46
2023-02-07T01:05:46.860Z,45.97
2023-02-07T01:08:13.326Z,45.61
2023-02-07T01:10:39.777Z,45.89
2023-02-07T01:13:06.205Z,44.49
2023-02-07T01:15:33.338Z,44.78
2023-02-07T01:18:00.530Z,44.90
2023-02-07T01:20:27.236Z,44.58
2023-02-07T01:22:53.968Z,44.63
2023-02-07T01:25:20.385Z,46.33
2023-02-07T01:27:47.358Z,46.02
2023-02-07T01:30:13.929Z,45.07
2023-02-07T01:32:40.338Z,44.82
2023-02-07T01:35:06.831Z,44.53
2023-02-07T01:37:33.217Z,44.92
2023-02-07T01:39:59.811Z,44.68
2023-02-07T01:42:26.279Z,45.16
2023-02-07T01:44:52.755Z,44.85
2023-02-07T01:47:19.233Z,44.74
2023-02-07T01:49:45.971Z,44.82
2023-02-07T01:52:12.444Z,44.53
2023-02-07T01:54:39.096Z,44.55
2023-02-07T01:57:10.314Z,44.37
2023-02-07T01:59:38.349Z,44.90
2023-02-07T02:02:05.047Z,44.86
2023-02-07T02:04:31.544Z,44.28
2023-02-07T02:06:58.457Z,46.22
2023-02-07T02:09:25.148Z,46.87
2023-02-07T02:11:51.786Z,47.27
2023-02-07T02:14:18.189Z,47.16
2023-02-07T02:16:44.615Z,46.72
2023-02-07T02:19:11.112Z,46.10
2023-02-07T02:21:37.706Z,45.44
2023-02-07T02:24:04.186Z,44.94
2023-02-07T02:26:30.621Z,45.05
2023-02-07T02:28:57.164Z,45.70
2023-02-07T02:31:23.637Z,46.13
2023-02-07T02:33:50.223Z,45.57
2023-02-07T02:36:16.591Z,44.69
2023-02-07T02:38:43.136Z,46.34
2023-02-07T02:41:09.525Z,45.83
2023-02-07T02:43:35.928Z,45.15
2023-02-07T02:46:03.018Z,45.55
2023-02-07T02:48:29.615Z,44.79
2023-02-07T02:50:56.046Z,45.13
2023-02-07T02:53:23.156Z,45.75
2023-02-07T02:55:49.614Z,46.00
2023-02-07T02:58:16.689Z,46.05
2023-02-07T03:00:43.189Z,45.68
2023-02-07T03:03:10.064Z,45.30
2023-02-07T03:05:36.912Z,45.34
2023-02-07T03:08:03.560Z,46.06
2023-02-07T03:10:29.983Z,47.62
2023-02-07T03:12:56.392Z,46.97
2023-02-07T03:15:22.829Z,46.40
2023-02-07T03:17:49.368Z,46.21
2023-02-07T03:20:17.358Z,46.43
2023-02-07T03:22:43.771Z,45.86
2023-02-07T03:25:10.292Z,45.89
2023-02-07T03:27:36.856Z,46.50
2023-02-07T03:30:03.457Z,45.68
2023-02-07T03:32:31.925Z,45.52
2023-02-07T03:34:58.309Z,45.06
2023-02-07T03:37:25.159Z,45.01
2023-02-07T03:39:51.532Z,45.32
2023-02-07T03:42:18.137Z,45.26
2023-02-07T03:44:46.886Z,46.22
2023-02-07T03:47:13.308Z,45.81
2023-02-07T03:49:40.446Z,45.90
2023-02-07T03:52:07.064Z,45.93
2023-02-07T03:54:33.472Z,45.36
2023-02-07T03:57:00.064Z,45.69
2023-02-07T03:59:26.503Z,45.51
2023-02-07T04:01:53.011Z,45.14
2023-02-07T04:04:19.396Z,45.43
2023-02-07T04:06:45.884Z,44.54
2023-02-07T04:09:12.442Z,45.64
2023-02-07T04:11:40.070Z,45.63
2023-02-07T04:14:06.722Z,45.60
2023-02-07T04:16:33.210Z,45.39
2023-02-07T04:19:00.047Z,45.39
2023-02-07T04:21:26.507Z,46.15
2023-02-07T04:23:53.366Z,46.06
2023-02-07T04:26:19.782Z,46.78
2023-02-07T04:28:46.556Z,45.98
2023-02-07T04:31:13.243Z,45.82
2023-02-07T04:33:39.670Z,46.22
2023-02-07T04:36:06.128Z,46.54
2023-02-07T04:38:32.522Z,46.72
2023-02-07T04:40:58.938Z,46.79
2023-02-07T04:43:25.831Z,46.35
2023-02-07T04:45:52.279Z,46.77
2023-02-07T04:48:18.906Z,46.49
2023-02-07T04:50:45.270Z,45.91
2023-02-07T04:53:13.791Z,46.31
2023-02-07T04:55:40.354Z,46.45
2023-02-07T04:58:06.992Z,46.93
2023-02-07T05:00:33.666Z,46.78
2023-02-07T05:03:00.888Z,46.57
2023-02-07T05:05:27.421Z,46.87
2023-02-07T05:07:54.451Z,46.25
2023-02-07T05:10:20.854Z,46.66
2023-02-07T05:12:48.798Z,47.61
2023-02-07T05:15:15.185Z,47.52
2023-02-07T05:17:44.059Z,46.70
2023-02-07T05:20:10.526Z,46.84
2023-02-07T05:22:37.125Z,46.88
2023-02-07T05:25:03.576Z,46.47
2023-02-07T05:27:30.440Z,47.37
2023-02-07T05:29:56.861Z,47.05
2023-02-07T05:32:24.333Z,46.98
2023-02-07T05:34:50.781Z,46.81
2023-02-07T05:37:17.243Z,46.58
2023-02-07T05:39:43.683Z,46.13
2023-02-07T05:42:10.148Z,45.77
2023-02-07T05:44:36.658Z,46.39
2023-02-07T05:47:03.055Z,46.37
2023-02-07T05:49:29.510Z,46.12
2023-02-07T05:51:56.427Z,46.43
2023-02-07T05:54:22.949Z,47.03
2023-02-07T05:56:49.368Z,47.14
2023-02-07T05:59:15.785Z,46.63
2023-02-07T06:01:42.171Z,46.77
2023-02-07T06:04:08.692Z,48.04
2023-02-07T06:06:35.576Z,47.39
2023-02-07T06:09:02.021Z,46.73
2023-02-07T06:11:28.421Z,46.25
2023-02-07T06:13:55.030Z,45.46
2023-02-07T06:16:21.580Z,46.18
2023-02-07T06:18:47.988Z,46.30
2023-02-07T06:21:15.676Z,45.87
2023-02-07T06:23:42.113Z,46.66
2023-02-07T06:26:08.834Z,46.44
2023-02-07T06:28:35.282Z,46.23
2023-02-07T06:31:01.756Z,46.31
2023-02-07T06:33:28.867Z,46.60
2023-02-07T06:35:55.343Z,46.32
2023-02-07T06:38:21.883Z,46.74
2023-02-07T06:40:48.288Z,46.94
2023-02-07T06:43:14.685Z,47.24
2023-02-07T06:45:41.192Z,46.99
2023-02-07T06:48:07.674Z,47.30
2023-02-07T06:50:34.229Z,46.36
2023-02-07T06:53:01.187Z,46.15
2023-02-07T06:55:27.692Z,46.50
2023-02-07T06:57:54.261Z,46.55
2023-02-07T07:00:21.018Z,46.43
2023-02-07T07:02:47.545Z,46.78
2023-02-07T07:05:16.192Z,46.77
2023-02-07T07:07:42.968Z,46.51
2023-02-07T07:10:09.508Z,47.27
2023-02-07T07:12:36.116Z,46.96
2023-02-07T07:15:02.708Z,47.37
2023-02-07T07:17:29.143Z,46.74
2023-02-07T07:19:55.779Z,46.75
2023-02-07T07:22:22.425Z,45.87
2023-02-07T07:24:49.273Z,45.96
2023-02-07T07:27:15.704Z,45.63
2023-02-07T07:29:42.330Z,45.07
2023-02-07T07:32:09.352Z,45.22
2023-02-07T07:34:35.960Z,44.55
2023-02-07T07:37:02.733Z,45.28
2023-02-07T07:39:29.248Z,44.98
2023-02-07T07:41:57.360Z,45.65
2023-02-07T07:44:23.886Z,46.49
2023-02-07T07:46:50.367Z,46.38
2023-02-07T07:49:16.830Z,45.76
2023-02-07T07:51:43.174Z,46.57
2023-02-07T07:54:09.835Z,46.78
2023-02-07T07:56:36.371Z,46.74
2023-02-07T07:59:05.927Z,47.08
2023-02-07T08:01:35.383Z,46.60
2023-02-07T08:04:01.939Z,45.90
2023-02-07T08:06:28.412Z,46.36
2023-02-07T08:08:54.846Z,47.64
2023-02-07T08:11:21.915Z,46.64
2023-02-07T08:13:48.487Z,46.56
2023-02-07T08:16:15.150Z,45.89
2023-02-07T08:18:41.792Z,45.92
2023-02-07T08:21:08.244Z,45.91
2023-02-07T08:23:34.743Z,46.02
2023-02-07T08:26:01.514Z,46.05
2023-02-07T08:28:28.123Z,47.04
2023-02-07T08:30:54.602Z,45.62
2023-02-07T08:33:21.036Z,45.04
2023-02-07T08:35:47.522Z,45.57
2023-02-07T08:38:13.941Z,44.88
2023-02-07T08:40:40.667Z,46.02
2023-02-07T08:43:07.320Z,44.93
2023-02-07T08:45:33.830Z,44.84
2023-02-07T08:48:00.322Z,47.03
2023-02-07T08:50:26.724Z,46.39
2023-02-07T08:52:53.288Z,45.46
2023-02-07T08:55:19.933Z,45.12
2023-02-07T08:57:46.796Z,45.68
2023-02-07T09:00:13.273Z,45.34
2023-02-07T09:02:39.858Z,45.08
2023-02-07T09:05:06.576Z,45.13
2023-02-07T09:07:33.481Z,44.81
2023-02-07T09:09:59.999Z,46.01
2023-02-07T09:12:26.784Z,46.27
2023-02-07T09:14:53.332Z,45.31
2023-02-07T09:17:21.314Z,44.88
2023-02-07T09:19:49.948Z,44.54
2023-02-07T09:22:16.448Z,44.70
2023-02-07T09:24:43.042Z,45.68
2023-02-07T09:27:09.488Z,45.01
2023-02-07T09:29:36.026Z,44.83
2023-02-07T09:32:02.497Z,43.35
2023-02-07T09:34:29.067Z,42.91
2023-02-07T09:36:55.878Z,44.04
2023-02-07T09:39:24.369Z,44.61
2023-02-07T09:41:51.034Z,44.19
2023-02-07T09:44:17.901Z,44.49
2023-02-07T09:46:44.695Z,44.34
2023-02-07T09:49:11.172Z,43.23
2023-02-07T09:51:37.776Z,44.23
2023-02-07T09:54:04.197Z,42.90
2023-02-07T09:56:30.733Z,43.60
2023-02-07T09:58:57.374Z,43.64
2023-02-07T10:01:24.183Z,44.27
2023-02-07T10:03:50.835Z,43.69
2023-02-07T10:06:18.765Z,42.52
2023-02-07T10:08:45.899Z,43.08
2023-02-07T10:11:12.883Z,41.56
2023-02-07T10:13:39.667Z,41.38
2023-02-07T10:16:06.173Z,41.17
2023-02-07T10:18:32.876Z,40.62
2023-02-07T10:20:59.697Z,41.63
2023-02-07T10:23:26.266Z,41.30
2023-02-07T10:25:53.069Z,42.13
2023-02-07T10:28:19.820Z,41.89
2023-02-07T10:30:46.471Z,40.53
2023-02-07T10:33:17.063Z,41.17
2023-02-07T10:35:43.910Z,41.54
2023-02-07T10:38:10.774Z,41.31
2023-02-07T10:40:37.723Z,41.58
2023-02-07T10:43:04.632Z,40.91
2023-02-07T10:45:32.126Z,41.70
2023-02-07T10:47:58.881Z,43.99
2023-02-07T10:50:30.097Z,43.94
2023-02-07T10:52:57.116Z,43.96
2023-02-07T10:55:23.531Z,42.21
2023-02-07T10:57:54.278Z,41.78
2023-02-07T11:00:26.237Z,42.27
2023-02-07T11:02:52.869Z,42.70
2023-02-07T11:05:19.995Z,43.00
2023-02-07T11:07:48.131Z,44.93
2023-02-07T11:10:14.998Z,43.86
2023-02-07T11:12:41.465Z,42.55
2023-02-07T11:15:07.939Z,43.38
2023-02-07T11:17:34.553Z,42.96
2023-02-07T11:20:01.120Z,42.56
2023-02-07T11:22:27.651Z,41.55
2023-02-07T11:24:54.117Z,41.66
2023-02-07T11:27:20.658Z,42.40
2023-02-07T11:29:47.429Z,42.40
2023-02-07T11:32:14.088Z,43.61
2023-02-07T11:34:40.605Z,42.98
2023-02-07T11:37:07.542Z,41.92
2023-02-07T11:39:33.961Z,43.22
2023-02-07T11:42:00.572Z,42.78
2023-02-07T11:44:28.989Z,42.66
2023-02-07T11:46:56.234Z,41.96
2023-02-07T11:49:22.907Z,42.40
2023-02-07T11:51:49.388Z,43.56
2023-02-07T11:54:16.009Z,42.42
2023-02-07T11:56:42.450Z,41.93
2023-02-07T11:59:08.987Z,41.83
2023-02-07T12:01:35.577Z,41.95
2023-02-07T12:04:02.182Z,42.72
2023-02-07T12:06:29.177Z,42.75
2023-02-07T12:08:55.795Z,42.55
2023-02-07T12:11:22.338Z,42.03
2023-02-07T12:13:48.781Z,41.82
2023-02-07T12:16:15.689Z,41.81
2023-02-07T12:18:42.461Z,42.08
2023-02-07T12:21:08.886Z,41.69
2023-02-07T12:23:42.284Z,41.96
2023-02-07T12:26:09.669Z,42.10
2023-02-07T12:28:36.411Z,43.69
2023-02-07T12:31:04.597Z,42.53
2023-02-07T12:33:32.103Z,43.66
2023-02-07T12:35:59.017Z,43.16
2023-02-07T12:38:25.927Z,42.03
2023-02-07T12:40:52.409Z,41.72
2023-02-07T12:43:18.901Z,42.15
2023-02-07T12:45:47.805Z,41.70
2023-02-07T12:48:14.378Z,41.19
2023-02-07T12:50:41.193Z,41.18
2023-02-07T12:53:07.768Z,41.68
2023-02-07T12:55:34.390Z,39.71
2023-02-07T12:58:01.766Z,39.16
2023-02-07T13:00:28.255Z,39.30
2023-02-07T13:02:54.856Z,38.98
2023-02-07T13:05:21.490Z,40.64
2023-02-07T13:07:48.102Z,41.67
2023-02-07T13:10:14.880Z,40.38
2023-02-07T13:12:41.524Z,41.95
2023-02-07T13:15:08.066Z,41.28
2023-02-07T13:17:34.465Z,41.47
2023-02-07T13:20:00.951Z,42.22
2023-02-07T13:22:27.636Z,41.01
2023-02-07T13:24:54.116Z,40.57
2023-02-07T13:27:20.591Z,41.23
2023-02-07T13:29:47.123Z,41.87
2023-02-07T13:32:13.704Z,42.68
2023-02-07T13:34:40.411Z,41.55
2023-02-07T13:37:16.320Z,43.72
2023-02-07T13:39:43.503Z,43.96
2023-02-07T13:42:10.175Z,42.18
2023-02-07T13:44:36.882Z,42.79
2023-02-07T13:47:03.300Z,42.51
2023-02-07T13:49:31.180Z,42.30
2023-02-07T13:51:57.620Z,41.61
2023-02-07T13:54:24.116Z,41.63
2023-02-07T13:56:50.618Z,40.70
2023-02-07T13:59:17.333Z,40.57
2023-02-07T14:01:44.070Z,40.52
2023-02-07T14:04:10.845Z,39.57
2023-02-07T14:06:37.312Z,39.19
2023-02-07T14:09:03.707Z,39.79
2023-02-07T14:11:30.081Z,39.38
2023-02-07T14:13:56.716Z,39.94
2023-02-07T14:16:23.386Z,39.18
2023-02-07T14:18:49.930Z,39.05
2023-02-07T14:21:16.346Z,39.80
2023-02-07T14:23:43.007Z,40.32
2023-02-07T14:26:09.733Z,39.50
2023-02-07T14:28:36.324Z,40.63
2023-02-07T14:31:02.965Z,40.63
2023-02-07T14:33:29.453Z,41.73
2023-02-07T14:35:55.870Z,42.13
2023-02-07T14:38:22.376Z,41.78
2023-02-07T14:40:49.035Z,39.94
2023-02-07T14:43:16.108Z,40.67
2023-02-07T14:45:45.051Z,41.75
2023-02-07T14:48:11.712Z,40.71
2023-02-07T14:50:38.381Z,42.29
2023-02-07T14:53:04.906Z,42.01
2023-02-07T14:55:32.621Z,41.41
2023-02-07T14:57:59.262Z,41.75
2023-02-07T15:00:25.685Z,40.81
2023-02-07T15:02:52.269Z,41.88
2023-02-07T15:05:18.869Z,41.09
2023-02-07T15:07:45.636Z,41.85
2023-02-07T15:10:12.107Z,40.65
2023-02-07T15:12:38.628Z,41.70
2023-02-07T15:15:07.170Z,41.84
2023-02-07T15:17:43.995Z,41.13
2023-02-07T15:20:11.040Z,40.36
2023-02-07T15:22:39.058Z,40.32
2023-02-07T15:25:05.798Z,41.01
2023-02-07T15:27:32.393Z,40.98
2023-02-07T15:29:58.825Z,40.19
2023-02-07T15:32:25.828Z,40.03
2023-02-07T15:34:52.719Z,40.19
2023-02-07T15:37:19.872Z,39.91
2023-02-07T15:39:48.990Z,41.31
2023-02-07T15:42:15.441Z,41.19
2023-02-07T15:44:42.325Z,40.63
2023-02-07T15:47:08.965Z,40.51
2023-02-07T15:49:35.411Z,40.53
2023-02-07T15:52:01.905Z,41.33
2023-02-07T15:54:29.206Z,41.09
2023-02-07T15:56:57.282Z,41.41
2023-02-07T15:59:23.810Z,41.64
2023-02-07T16:01:50.374Z,41.67
2023-02-07T16:04:16.870Z,41.39
2023-02-07T16:06:43.851Z,40.40
2023-02-07T16:09:10.265Z,42.02
2023-02-07T16:11:36.962Z,41.84
2023-02-07T16:14:03.729Z,42.75
2023-02-07T16:16:30.476Z,42.19
2023-02-07T16:18:57.004Z,41.74
2023-02-07T16:21:23.560Z,42.54
2023-02-07T16:23:50.094Z,41.56
2023-02-07T16:26:16.684Z,42.24
2023-02-07T16:28:43.536Z,41.97
2023-02-07T16:31:10.770Z,41.83
2023-02-07T16:33:39.905Z,41.64
2023-02-07T16:36:07.172Z,42.28
2023-02-07T16:38:33.725Z,41.56
2023-02-07T16:41:00.161Z,41.55
2023-02-07T16:43:26.571Z,41.35
2023-02-07T16:45:53.420Z,42.43
2023-02-07T16:48:19.838Z,41.49
2023-02-07T16:50:46.303Z,42.02
2023-02-07T16:53:13.064Z,41.68
2023-02-07T16:55:39.583Z,43.35
2023-02-07T16:58:06.090Z,42.94
2023-02-07T17:00:32.631Z,42.23
2023-02-07T17:02:59.362Z,43.84
2023-02-07T17:05:26.078Z,43.57
2023-02-07T17:07:52.600Z,44.40
2023-02-07T17:10:19.904Z,44.89
2023-02-07T17:12:46.652Z,43.84
2023-02-07T17:15:14.260Z,44.77
2023-02-07T17:17:40.739Z,44.16
2023-02-07T17:20:08.307Z,43.38
2023-02-07T17:22:34.851Z,42.76
2023-02-07T17:25:01.531Z,44.44
2023-02-07T17:27:28.043Z,42.98
2023-02-07T17:29:55.168Z,43.69
2023-02-07T17:32:23.769Z,43.76
2023-02-07T17:34:50.635Z,43.62
2023-02-07T17:37:17.174Z,43.13
2023-02-07T17:39:44.117Z,42.56
2023-02-07T17:42:11.159Z,41.25
2023-02-07T17:44:38.208Z,42.50
2023-02-07T17:47:05.128Z,41.57
2023-02-07T17:49:32.319Z,41.15
2023-02-07T17:51:58.914Z,42.22
2023-02-07T17:54:26.708Z,41.73
2023-02-07T17:56:54.593Z,42.33
2023-02-07T17:59:22.972Z,42.96
2023-02-07T18:01:50.229Z,43.17
2023-02-07T18:04:17.338Z,42.52
2023-02-07T18:06:44.355Z,41.71
2023-02-07T18:09:11.326Z,42.38
2023-02-07T18:11:38.311Z,43.38
2023-02-07T18:14:05.341Z,44.24
2023-02-07T18:16:31.855Z,43.85
2023-02-07T18:18:58.806Z,44.88
2023-02-07T18:21:30.214Z,44.53
2023-02-07T18:23:56.783Z,43.65
2023-02-07T18:26:23.860Z,42.80
2023-02-07T18:28:51.955Z,42.63
2023-02-07T18:31:21.023Z,43.01
2023-02-07T18:33:47.709Z,43.64
2023-02-07T18:36:15.431Z,43.56
2023-02-07T18:38:42.353Z,44.27
2023-02-07T18:41:08.900Z,43.24
2023-02-07T18:43:36.866Z,42.79
2023-02-07T18:46:04.765Z,43.17
2023-02-07T18:48:31.849Z,42.86
2023-02-07T18:50:58.822Z,42.54
2023-02-07T18:53:26.422Z,42.02
2023-02-07T18:55:56.494Z,42.31
2023-02-07T18:58:23.585Z,41.85
2023-02-07T19:00:50.451Z,42.57
2023-02-07T19:03:17.559Z,43.05
2023-02-07T19:05:45.662Z,43.43
2023-02-07T19:08:12.804Z,43.67
2023-02-07T19:10:40.537Z,42.77
2023-02-07T19:13:07.974Z,44.03
2023-02-07T19:15:34.884Z,44.16
2023-02-07T19:18:07.307Z,43.83
2023-02-07T19:20:36.731Z,44.40
2023-02-07T19:23:06.952Z,44.64
2023-02-07T19:25:34.035Z,45.24
2023-02-07T19:28:02.188Z,45.83
2023-02-07T19:30:34.414Z,45.34
2023-02-07T19:33:01.500Z,45.26
2023-02-07T19:35:28.664Z,44.38
2023-02-07T19:37:56.219Z,45.39
2023-02-07T19:40:23.218Z,43.54
2023-02-07T19:42:50.167Z,44.89
2023-02-07T19:45:17.394Z,44.14
2023-02-07T19:47:45.521Z,44.10
2023-02-07T19:50:12.899Z,45.95
2023-02-07T19:52:40.033Z,45.41
2023-02-07T19:55:07.502Z,44.76
2023-02-07T19:57:34.448Z,43.34
2023-02-07T20:00:02.173Z,44.10
2023-02-07T20:02:29.471Z,43.61
2023-02-07T20:05:00.261Z,43.27
2023-02-07T20:07:27.446Z,51.05
2023-02-07T20:09:54.879Z,51.96
2023-02-07T20:12:21.524Z,50.91
2023-02-07T20:14:49.515Z,44.67
2023-02-07T20:17:16.932Z,45.12
2023-02-07T20:19:44.199Z,44.86
2023-02-07T20:22:11.726Z,44.32
2023-02-07T20:24:39.756Z,43.94
2023-02-07T20:27:06.822Z,43.45
2023-02-07T20:29:35.064Z,42.27
2023-02-07T20:32:02.299Z,44.32
2023-02-07T20:34:30.568Z,44.60
2023-02-07T20:36:57.986Z,44.12
2023-02-07T20:39:25.573Z,44.06
2023-02-07T20:41:52.575Z,43.73
2023-02-07T20:44:19.722Z,43.44
2023-02-07T20:46:46.704Z,43.28
2023-02-07T20:49:14.466Z,43.48
2023-02-07T20:51:41.835Z,43.23
2023-02-07T20:54:10.142Z,43.52
2023-02-07T20:56:37.598Z,43.42
2023-02-07T20:59:04.966Z,42.96
2023-02-07T21:01:34.263Z,43.69
2023-02-07T21:04:01.118Z,43.99
2023-02-07T21:06:28.252Z,43.51
2023-02-07T21:08:54.913Z,44.23
2023-02-07T21:11:22.724Z,43.36
2023-02-07T21:13:53.972Z,45.35
2023-02-07T21:16:21.016Z,44.68
2023-02-07T21:18:48.059Z,44.92
2023-02-07T21:21:14.636Z,44.88
2023-02-07T21:23:41.685Z,44.88
2023-02-07T21:26:09.248Z,44.39
2023-02-07T21:28:35.835Z,43.80
2023-02-07T21:31:02.386Z,43.71
2023-02-07T21:33:32.052Z,44.21
2023-02-07T21:35:58.598Z,44.63
2023-02-07T21:38:25.090Z,44.50
2023-02-07T21:40:51.834Z,45.12
2023-02-07T21:43:18.287Z,44.80
2023-02-07T21:45:44.858Z,45.00
2023-02-07T21:48:11.344Z,45.04
2023-02-07T21:50:38.104Z,44.79
2023-02-07T21:53:07.735Z,44.97
2023-02-07T21:55:34.272Z,44.93
2023-02-07T21:58:00.822Z,44.65
2023-02-07T22:00:27.384Z,44.02
2023-02-07T22:02:53.842Z,44.36
2023-02-07T22:05:20.557Z,44.18
2023-02-07T22:07:47.466Z,43.92
2023-02-07T22:10:14.151Z,44.68
2023-02-07T22:12:41.050Z,44.89
2023-02-07T22:15:07.586Z,44.42
2023-02-07T22:17:34.180Z,44.52
2023-02-07T22:20:00.628Z,44.72
2023-02-07T22:22:27.351Z,45.18
2023-02-07T22:24:53.928Z,44.51
2023-02-07T22:27:20.459Z,45.29
2023-02-07T22:29:47.069Z,45.93
2023-02-07T22:32:13.612Z,45.32
2023-02-07T22:34:40.735Z,45.18
2023-02-07T22:37:07.295Z,45.47
2023-02-07T22:39:33.952Z,46.43
2023-02-07T22:42:00.750Z,46.25
2023-02-07T22:44:27.424Z,45.56
2023-02-07T22:46:56.456Z,47.20
2023-02-07T22:49:24.208Z,46.86
2023-02-07T22:51:50.993Z,46.84
2023-02-07T22:54:17.479Z,46.81
2023-02-07T22:56:45.895Z,46.20
2023-02-07T22:59:14.007Z,46.02
2023-02-07T23:01:42.678Z,46.24
2023-02-07T23:04:09.119Z,46.22
2023-02-07T23:06:36.360Z,46.92
2023-02-07T23:09:05.781Z,46.95
2023-02-07T23:11:39.971Z,46.10
2023-02-07T23:14:06.472Z,46.70
2023-02-07T23:16:33.378Z,45.93
2023-02-07T23:19:00.873Z,45.72
2023-02-07T23:21:27.323Z,46.22
2023-02-07T23:23:53.768Z,45.52
2023-02-07T23:26:20.448Z,45.82
2023-02-07T23:28:46.927Z,46.97
2023-02-07T23:31:13.477Z,47.22
2023-02-07T23:33:40.190Z,47.28
2023-02-07T23:36:06.853Z,47.62
2023-02-07T23:38:33.408Z,48.05
2023-02-07T23:41:00.041Z,47.56
2023-02-07T23:43:26.484Z,47.68
2023-02-07T23:45:53.175Z,47.25
2023-02-07T23:48:19.784Z,46.60
2023-02-07T23:50:46.826Z,46.03
2023-02-07T23:53:13.704Z,45.67
2023-02-07T23:55:40.171Z,46.67
2023-02-07T23:58:06.630Z,46.00
